createdAt,value
2019-04-20T00:00:42.988Z,48.90
2019-04-20T00:03:08.046Z,49.10
2019-04-20T00:05:37.262Z,49.20
2019-04-20T00:08:08.946Z,49.20
2019-04-20T00:10:47.615Z,49.30
2019-04-20T00:13:20.558Z,49.30
2019-04-20T00:15:40.924Z,49.40
2019-04-20T00:18:10.519Z,49.40
2019-04-20T00:20:43.911Z,49.60
2019-04-20T00:23:26.907Z,49.50
2019-04-20T00:26:17.134Z,49.60
2019-04-20T00:29:02.669Z,49.60
2019-04-20T00:31:27.165Z,49.60
2019-04-20T00:33:56.196Z,49.70
2019-04-20T00:36:15.989Z,49.70
2019-04-20T00:38:50.936Z,49.70
2019-04-20T00:41:18.595Z,49.70
2019-04-20T00:43:47.248Z,49.80
2019-04-20T00:46:24.967Z,50.00
2019-04-20T00:48:55.811Z,49.90
2019-04-20T00:51:35.213Z,50.00
2019-04-20T00:53:53.836Z,50.00
2019-04-20T00:56:22.277Z,50.20
2019-04-20T00:59:06.525Z,50.00
2019-04-20T01:01:43.596Z,50.20
2019-04-20T01:04:16.281Z,50.20
2019-04-20T01:06:58.727Z,50.20
2019-04-20T01:09:39.143Z,50.20
2019-04-20T01:12:14.551Z,50.20
2019-04-20T01:14:46.657Z,50.30
2019-04-20T01:17:12.041Z,50.40
2019-04-20T01:19:40.380Z,50.40
2019-04-20T01:22:13.588Z,50.50
2019-04-20T01:24:43.733Z,50.50
2019-04-20T01:27:25.874Z,50.50
2019-04-20T01:29:47.804Z,50.70
2019-04-20T01:32:23.232Z,50.50
2019-04-20T01:34:55.213Z,50.70
2019-04-20T01:37:26.048Z,50.80
2019-04-20T01:39:52.093Z,50.80
2019-04-20T01:42:15.174Z,50.90
2019-04-20T01:44:48.836Z,50.90
2019-04-20T01:47:15.121Z,50.90
2019-04-20T01:49:47.796Z,51.00
2019-04-20T01:52:23.413Z,51.70
2019-04-20T01:55:19.589Z,51.20
2019-04-20T01:57:56.153Z,51.30
2019-04-20T02:00:36.651Z,51.30
2019-04-20T02:03:22.843Z,51.40
2019-04-20T02:05:55.615Z,51.40
2019-04-20T02:08:24.955Z,51.50
2019-04-20T02:10:57.458Z,51.50
2019-04-20T02:13:26.452Z,51.60
2019-04-20T02:15:58.961Z,51.80
2019-04-20T02:18:36.710Z,51.60
2019-04-20T02:21:15.206Z,51.70
2019-04-20T02:23:37.702Z,51.70
2019-04-20T02:26:17.853Z,51.50
2019-04-20T02:29:12.341Z,51.80
2019-04-20T02:34:40.262Z,51.90
2019-04-20T02:37:13.586Z,52.00
2019-04-20T02:47:15.732Z,52.30
2019-04-20T02:49:49.464Z,52.30
2019-04-20T02:52:13.454Z,52.40
2019-04-20T02:54:46.812Z,52.50
2019-04-20T02:59:59.492Z,52.50
2019-04-20T03:02:06.055Z,52.50
2019-04-20T03:04:28.335Z,52.60
2019-04-20T03:07:04.207Z,52.70
2019-04-20T03:09:39.998Z,52.80
2019-04-20T03:12:29.780Z,52.80
2019-04-20T03:14:36.203Z,52.80
2019-04-20T03:17:15.230Z,52.90
2019-04-20T03:19:38.587Z,52.90
2019-04-20T03:22:16.112Z,53.00
2019-04-20T03:24:50.881Z,53.10
2019-04-20T03:27:20.976Z,53.10
2019-04-20T03:29:56.699Z,53.20
2019-04-20T03:33:12.649Z,53.10
2019-04-20T03:35:20.057Z,53.20
2019-04-20T03:37:48.726Z,53.30
2019-04-20T03:40:13.845Z,53.30
2019-04-20T03:42:28.876Z,53.40
2019-04-20T03:45:04.113Z,53.40
2019-04-20T03:47:38.574Z,53.50
2019-04-20T03:50:24.977Z,53.50
2019-04-20T03:53:02.739Z,53.60
2019-04-20T03:55:44.785Z,53.60
2019-04-20T03:58:24.435Z,53.70
2019-04-20T04:01:22.463Z,54.60
2019-04-20T04:04:01.729Z,54.60
2019-04-20T04:06:21.476Z,54.60
2019-04-20T04:08:55.010Z,54.60
2019-04-20T04:11:27.372Z,54.70
2019-04-20T04:13:41.817Z,54.80
2019-04-20T04:16:13.847Z,54.80
2019-04-20T04:18:46.017Z,54.90
2019-04-20T04:21:20.302Z,54.90
2019-04-20T04:23:58.836Z,55.00
2019-04-20T04:26:30.117Z,54.90
2019-04-20T04:29:08.559Z,54.90
2019-04-20T04:31:41.285Z,55.00
2019-04-20T04:34:04.852Z,55.10
2019-04-20T04:36:36.170Z,55.20
2019-04-20T04:39:11.438Z,55.20
2019-04-20T04:41:36.316Z,56.00
2019-04-20T04:44:08.634Z,55.40
2019-04-20T04:46:20.746Z,55.50
2019-04-20T04:48:52.747Z,55.40
2019-04-20T04:51:25.682Z,55.50
2019-04-20T04:53:59.810Z,55.50
2019-04-20T04:56:23.985Z,55.60
2019-04-20T04:58:53.814Z,55.70
2019-04-20T05:01:27.400Z,55.80
2019-04-20T05:04:22.786Z,56.10
2019-04-20T05:06:37.397Z,55.90
2019-04-20T05:09:00.838Z,56.10
2019-04-20T05:11:27.936Z,56.00
2019-04-20T05:14:03.577Z,56.10
2019-04-20T05:16:45.067Z,56.20
2019-04-20T05:19:19.363Z,56.20
2019-04-20T05:22:15.981Z,56.20
2019-04-20T05:24:48.074Z,56.00
2019-04-20T05:27:33.545Z,56.20
2019-04-20T05:29:42.907Z,56.10
2019-04-20T05:32:18.009Z,56.30
2019-04-20T05:35:05.355Z,56.20
2019-04-20T05:37:41.406Z,56.10
2019-04-20T05:40:11.916Z,55.30
2019-04-20T05:42:39.791Z,55.30
2019-04-20T05:45:07.545Z,55.20
2019-04-20T05:47:38.769Z,55.20
2019-04-20T05:50:06.153Z,55.20
2019-04-20T05:52:53.657Z,55.10
2019-04-20T05:55:19.404Z,55.20
2019-04-20T05:57:42.068Z,55.20
2019-04-20T06:00:27.713Z,55.10
2019-04-20T06:02:53.993Z,55.10
2019-04-20T06:05:28.774Z,55.60
2019-04-20T06:08:00.683Z,55.00
2019-04-20T06:10:34.593Z,55.00
2019-04-20T06:13:04.435Z,55.10
2019-04-20T06:16:04.922Z,54.90
2019-04-20T06:18:39.023Z,54.80
2019-04-20T06:21:19.768Z,54.80
2019-04-20T06:23:56.739Z,54.70
2019-04-20T06:26:35.197Z,54.80
2019-04-20T06:28:51.827Z,54.80
2019-04-20T06:31:40.993Z,54.60
2019-04-20T06:37:10.119Z,54.60
2019-04-20T06:44:36.840Z,54.40
2019-04-20T06:47:08.919Z,54.60
2019-04-20T06:49:51.371Z,54.20
2019-04-20T06:55:02.810Z,54.10
2019-04-20T07:00:11.396Z,54.10
2019-04-20T07:02:42.852Z,54.10
2019-04-20T07:05:12.425Z,54.10
2019-04-20T07:07:45.414Z,54.00
2019-04-20T07:10:18.260Z,53.80
2019-04-20T07:12:37.902Z,53.90
2019-04-20T07:15:08.539Z,53.80
2019-04-20T07:17:53.384Z,53.80
2019-04-20T07:20:21.313Z,53.70
2019-04-20T07:23:05.009Z,53.70
2019-04-20T07:25:31.144Z,53.70
2019-04-20T07:27:58.997Z,53.70
2019-04-20T07:30:30.863Z,53.70
2019-04-20T07:33:01.125Z,53.70
2019-04-20T07:35:30.507Z,54.40
2019-04-20T07:38:20.069Z,53.70
2019-04-20T07:40:29.138Z,53.60
2019-04-20T07:42:59.269Z,53.60
2019-04-20T07:48:10.952Z,53.60
2019-04-20T07:50:29.550Z,53.60
2019-04-20T07:53:07.462Z,53.60
2019-04-20T07:55:47.769Z,53.40
2019-04-20T07:58:02.855Z,53.60
2019-04-20T08:00:51.687Z,53.60
2019-04-20T08:03:43.984Z,53.60
2019-04-20T08:06:14.471Z,53.60
2019-04-20T08:08:53.126Z,53.60
2019-04-20T08:11:21.036Z,53.50
2019-04-20T08:14:01.971Z,53.40
2019-04-20T08:16:42.399Z,53.40
2019-04-20T08:18:59.765Z,53.30
2019-04-20T08:21:35.186Z,53.20
2019-04-20T08:24:02.483Z,53.20
2019-04-20T08:26:23.300Z,53.20
2019-04-20T08:29:18.819Z,53.60
2019-04-20T08:32:17.827Z,53.20
2019-04-20T08:34:52.201Z,53.10
2019-04-20T08:37:17.605Z,53.10
2019-04-20T08:39:57.963Z,53.00
2019-04-20T08:42:16.491Z,53.00
2019-04-20T08:45:00.080Z,52.80
2019-04-20T08:47:35.259Z,52.70
2019-04-20T08:50:16.803Z,53.20
2019-04-20T08:53:06.836Z,52.50
2019-04-20T08:55:09.247Z,52.40
2019-04-20T08:57:24.618Z,52.30
2019-04-20T08:59:54.411Z,52.20
2019-04-20T09:02:24.007Z,52.20
2019-04-20T09:05:01.350Z,52.00
2019-04-20T09:07:28.304Z,51.90
2019-04-20T09:10:20.121Z,51.90
2019-04-20T09:12:40.589Z,51.80
2019-04-20T09:14:56.103Z,51.70
2019-04-20T09:17:38.649Z,51.80
2019-04-20T09:20:07.097Z,51.70
2019-04-20T09:22:45.682Z,51.60
2019-04-20T09:25:42.848Z,51.40
2019-04-20T09:27:45.638Z,51.30
2019-04-20T09:30:25.645Z,51.30
2019-04-20T09:33:09.974Z,51.70
2019-04-20T09:35:39.112Z,51.20
2019-04-20T09:38:11.578Z,51.10
2019-04-20T09:40:44.922Z,50.80
2019-04-20T09:43:26.471Z,50.80
2019-04-20T09:46:01.426Z,50.70
2019-04-20T09:48:38.396Z,50.30
2019-04-20T09:51:16.870Z,50.20
2019-04-20T09:53:39.420Z,50.00
2019-04-20T09:56:18.107Z,49.80
2019-04-20T09:58:50.897Z,49.70
2019-04-20T10:01:14.558Z,49.30
2019-04-20T10:03:31.105Z,49.20
2019-04-20T10:06:01.254Z,49.00
2019-04-20T10:08:35.964Z,48.90
2019-04-20T10:11:01.647Z,48.80
2019-04-20T10:13:32.150Z,48.50
2019-04-20T10:16:01.757Z,48.50
2019-04-20T10:18:34.305Z,48.10
2019-04-20T10:21:02.064Z,48.30
2019-04-20T10:23:34.526Z,48.30
2019-04-20T10:26:04.711Z,48.10
2019-04-20T10:28:33.932Z,48.00
2019-04-20T10:31:04.259Z,48.00
2019-04-20T10:33:33.533Z,47.90
2019-04-20T10:36:03.549Z,47.60
2019-04-20T10:38:35.630Z,47.40
2019-04-20T10:41:11.516Z,46.00
2019-04-20T10:43:35.069Z,46.20
2019-04-20T10:46:05.182Z,46.80
2019-04-20T10:48:40.285Z,46.50
2019-04-20T10:51:05.293Z,46.60
2019-04-20T10:53:34.603Z,46.40
2019-04-20T10:56:03.570Z,46.60
2019-04-20T10:58:33.757Z,46.40
2019-04-20T11:01:03.911Z,46.50
2019-04-20T11:03:34.478Z,46.40
2019-04-20T11:06:04.825Z,46.30
2019-04-20T11:08:34.831Z,46.30
2019-04-20T11:11:12.726Z,46.30
2019-04-20T11:13:35.264Z,46.30
2019-04-20T11:16:04.373Z,46.50
2019-04-20T11:18:33.655Z,46.30
2019-04-20T11:21:03.647Z,46.20
2019-04-20T11:23:34.112Z,45.80
2019-04-20T11:26:04.249Z,45.60
2019-04-20T11:28:34.421Z,45.10
2019-04-20T11:31:04.047Z,45.00
2019-04-20T11:33:34.210Z,45.40
2019-04-20T11:36:03.542Z,45.50
2019-04-20T11:38:33.137Z,45.20
2019-04-20T11:41:11.246Z,45.20
2019-04-20T11:43:33.617Z,45.20
2019-04-20T11:46:02.834Z,45.20
2019-04-20T11:48:31.779Z,44.70
2019-04-20T11:51:01.410Z,44.80
2019-04-20T11:53:30.498Z,44.50
2019-04-20T11:56:00.447Z,44.10
2019-04-20T11:58:30.360Z,45.00
2019-04-20T12:01:07.745Z,44.30
2019-04-20T12:03:41.669Z,44.30
2019-04-20T12:06:05.385Z,44.10
2019-04-20T12:08:36.058Z,43.70
2019-04-20T12:11:21.408Z,44.00
2019-04-20T12:13:36.477Z,43.90
2019-04-20T12:16:05.905Z,43.90
2019-04-20T12:18:35.835Z,43.50
2019-04-20T12:21:05.094Z,43.70
2019-04-20T12:23:34.101Z,44.30
2019-04-20T12:26:04.674Z,43.70
2019-04-20T12:28:33.780Z,43.50
2019-04-20T12:31:08.760Z,43.40
2019-04-20T12:33:34.481Z,43.00
2019-04-20T12:36:06.004Z,42.60
2019-04-20T12:38:35.321Z,42.90
2019-04-20T12:41:06.598Z,42.90
2019-04-20T12:43:36.003Z,42.80
2019-04-20T12:46:05.527Z,42.80
2019-04-20T12:48:35.544Z,42.70
2019-04-20T12:51:05.712Z,42.30
2019-04-20T12:53:34.969Z,43.00
2019-04-20T12:56:04.470Z,42.50
2019-04-20T12:58:34.641Z,42.00
2019-04-20T13:01:04.524Z,42.30
2019-04-20T13:03:35.221Z,42.30
2019-04-20T13:06:05.756Z,42.70
2019-04-20T13:08:41.156Z,42.70
2019-04-20T13:11:10.798Z,42.40
2019-04-20T13:14:12.550Z,42.10
2019-04-20T13:16:41.579Z,42.20
2019-04-20T13:19:11.138Z,42.30
2019-04-20T13:21:41.005Z,42.10
2019-04-20T13:24:11.068Z,42.10
2019-04-20T13:26:40.734Z,42.20
2019-04-20T13:29:10.728Z,41.40
2019-04-20T13:31:40.306Z,41.80
2019-04-20T13:34:09.684Z,41.70
2019-04-20T13:36:40.042Z,41.70
2019-04-20T13:39:10.196Z,41.30
2019-04-20T13:41:39.990Z,41.20
2019-04-20T13:44:09.153Z,41.40
2019-04-20T13:46:38.861Z,41.40
2019-04-20T13:49:09.292Z,41.30
2019-04-20T13:51:39.071Z,41.50
2019-04-20T13:54:15.059Z,41.80
2019-04-20T13:56:39.707Z,41.50
2019-04-20T13:59:20.011Z,41.60
2019-04-20T14:01:57.346Z,41.20
2019-04-20T14:04:39.361Z,41.40
2019-04-20T14:07:09.940Z,41.50
2019-04-20T14:09:39.496Z,41.40
2019-04-20T14:12:17.297Z,40.50
2019-04-20T14:14:41.255Z,40.60
2019-04-20T14:17:10.812Z,40.80
2019-04-20T14:19:41.114Z,41.10
2019-04-20T14:22:10.346Z,40.60
2019-04-20T14:24:40.333Z,41.10
2019-04-20T14:27:10.564Z,41.30
2019-04-20T14:29:41.168Z,41.30
2019-04-20T14:32:11.795Z,41.00
2019-04-20T14:34:42.867Z,41.20
2019-04-20T14:37:12.964Z,41.10
2019-04-20T14:39:42.525Z,41.10
2019-04-20T14:42:24.256Z,41.30
2019-04-20T14:44:43.653Z,40.20
2019-04-20T14:47:13.809Z,39.70
2019-04-20T14:49:43.034Z,40.40
2019-04-20T14:52:13.334Z,40.30
2019-04-20T14:54:43.580Z,40.50
2019-04-20T14:57:13.724Z,40.60
2019-04-20T14:59:53.790Z,40.90
2019-04-20T15:02:26.282Z,41.00
2019-04-20T15:04:56.731Z,41.10
2019-04-20T15:07:26.693Z,40.70
2019-04-20T15:09:57.040Z,40.70
2019-04-20T15:12:38.884Z,40.50
2019-04-20T15:14:57.007Z,40.50
2019-04-20T15:17:35.269Z,40.30
2019-04-20T15:20:12.075Z,40.20
2019-04-20T15:22:49.898Z,39.90
2019-04-20T15:25:19.020Z,40.60
2019-04-20T15:27:48.247Z,40.80
2019-04-20T15:30:18.362Z,40.50
2019-04-20T15:32:49.172Z,40.40
2019-04-20T15:35:19.696Z,40.70
2019-04-20T15:37:49.228Z,40.30
2019-04-20T15:40:19.322Z,40.60
2019-04-20T15:42:58.016Z,40.20
2019-04-20T15:45:19.518Z,40.30
2019-04-20T15:47:49.968Z,40.20
2019-04-20T15:50:20.224Z,40.20
2019-04-20T15:52:52.696Z,39.80
2019-04-20T15:55:26.428Z,40.30
2019-04-20T15:57:50.853Z,40.10
2019-04-20T16:00:20.371Z,39.60
2019-04-20T16:02:53.851Z,40.00
2019-04-20T16:05:38.997Z,39.70
2019-04-20T16:08:36.678Z,39.70
2019-04-20T16:11:07.066Z,39.30
2019-04-20T16:13:40.266Z,39.00
2019-04-20T16:16:07.851Z,39.80
2019-04-20T16:18:37.233Z,40.10
2019-04-20T16:21:13.319Z,40.30
2019-04-20T16:23:52.467Z,40.30
2019-04-20T16:26:41.943Z,40.70
2019-04-20T16:29:11.479Z,40.90
2019-04-20T16:31:43.925Z,40.90
2019-04-20T16:34:12.106Z,40.40
2019-04-20T16:36:41.252Z,41.20
2019-04-20T16:39:11.123Z,40.00
2019-04-20T16:41:42.409Z,40.10
2019-04-20T16:44:11.606Z,40.60
2019-04-20T16:46:40.807Z,40.30
2019-04-20T16:49:10.898Z,40.50
2019-04-20T16:51:40.881Z,40.20
2019-04-20T16:54:10.156Z,40.50
2019-04-20T16:56:39.279Z,39.90
2019-04-20T16:59:11.576Z,40.30
2019-04-20T17:01:40.231Z,40.50
2019-04-20T17:04:15.057Z,41.30
2019-04-20T17:06:42.604Z,40.90
2019-04-20T17:09:12.200Z,41.00
2019-04-20T17:11:41.629Z,40.80
2019-04-20T17:14:10.667Z,41.20
2019-04-20T17:16:39.727Z,41.00
2019-04-20T17:19:09.926Z,40.90
2019-04-20T17:21:40.264Z,41.00
2019-04-20T17:24:09.607Z,41.30
2019-04-20T17:26:47.547Z,40.80
2019-04-20T17:29:23.953Z,41.30
2019-04-20T17:32:13.742Z,41.20
2019-04-20T17:34:59.567Z,41.40
2019-04-20T17:37:14.914Z,41.60
2019-04-20T17:40:06.751Z,41.50
2019-04-20T17:42:30.243Z,41.50
2019-04-20T17:44:56.434Z,41.60
2019-04-20T17:47:37.282Z,41.80
2019-04-20T17:50:06.928Z,41.80
2019-04-20T17:52:41.536Z,41.90
2019-04-20T17:54:55.808Z,41.90
2019-04-20T17:57:25.459Z,41.90
2019-04-20T18:00:05.339Z,42.00
2019-04-20T18:03:05.308Z,42.10
2019-04-20T18:05:39.085Z,42.40
2019-04-20T18:08:15.460Z,42.40
2019-04-20T18:10:37.886Z,42.50
2019-04-20T18:12:57.183Z,42.60
2019-04-20T18:15:40.664Z,42.70
2019-04-20T18:18:46.545Z,42.80
2019-04-20T18:21:16.889Z,42.70
2019-04-20T18:23:48.555Z,42.90
2019-04-20T18:26:37.864Z,42.80
2019-04-20T18:29:23.980Z,42.90
2019-04-20T18:31:37.673Z,43.00
2019-04-20T18:34:14.494Z,43.00
2019-04-20T18:36:44.654Z,43.10
2019-04-20T18:39:16.157Z,43.20
2019-04-20T18:41:48.688Z,43.20
2019-04-20T18:44:14.831Z,43.20
2019-04-20T18:47:07.674Z,43.30
2019-04-20T18:49:33.891Z,43.40
2019-04-20T18:51:46.113Z,43.40
2019-04-20T18:54:20.760Z,43.50
2019-04-20T18:56:50.346Z,43.50
2019-04-20T18:59:16.925Z,43.60
2019-04-20T19:01:46.758Z,43.60
2019-04-20T19:04:17.543Z,43.50
2019-04-20T19:06:47.985Z,43.70
2019-04-20T19:09:24.205Z,43.70
2019-04-20T19:11:53.488Z,43.70
2019-04-20T19:14:40.844Z,43.80
2019-04-20T19:17:29.089Z,43.80
2019-04-20T19:19:58.238Z,43.90
2019-04-20T19:22:26.348Z,44.00
2019-04-20T19:24:55.864Z,44.10
2019-04-20T19:27:36.067Z,44.20
2019-04-20T19:30:07.451Z,44.20
2019-04-20T19:32:39.913Z,44.30
2019-04-20T19:35:06.833Z,44.20
2019-04-20T19:37:33.278Z,44.40
2019-04-20T19:40:10.852Z,44.50
2019-04-20T19:42:43.195Z,44.50
2019-04-20T19:45:26.271Z,44.60
2019-04-20T19:47:48.252Z,44.70
2019-04-20T19:50:31.141Z,44.60
2019-04-20T19:53:01.185Z,44.70
2019-04-20T19:55:21.016Z,44.80
2019-04-20T19:57:51.232Z,44.90
2019-04-20T20:00:07.650Z,44.90
2019-04-20T20:02:37.798Z,44.90
2019-04-20T20:05:12.195Z,45.00
2019-04-20T20:07:45.698Z,45.10
2019-04-20T20:10:12.882Z,45.00
2019-04-20T20:12:49.373Z,45.00
2019-04-20T20:15:23.759Z,45.10
2019-04-20T20:18:10.227Z,45.10
2019-04-20T20:20:38.241Z,45.20
2019-04-20T20:22:50.515Z,45.20
2019-04-20T20:25:18.888Z,45.30
2019-04-20T20:27:54.353Z,45.20
2019-04-20T20:30:28.007Z,45.30
2019-04-20T20:33:05.895Z,45.40
2019-04-20T20:35:25.988Z,45.40
2019-04-20T20:37:57.377Z,45.50
2019-04-20T20:40:30.291Z,45.50
2019-04-20T20:43:09.706Z,45.50
2019-04-20T20:45:33.593Z,45.60
2019-04-20T20:48:15.275Z,45.60
2019-04-20T20:50:48.747Z,45.60
2019-04-20T20:53:10.276Z,45.70
2019-04-20T20:55:36.791Z,45.80
2019-04-20T20:58:08.286Z,45.80
2019-04-20T21:00:48.472Z,45.80
2019-04-20T21:03:18.470Z,45.90
2019-04-20T21:05:39.813Z,45.80
2019-04-20T21:08:09.070Z,45.90
2019-04-20T21:10:42.386Z,45.90
2019-04-20T21:13:10.922Z,46.00
2019-04-20T21:15:47.364Z,45.90
2019-04-20T21:18:33.782Z,46.10
2019-04-20T21:21:00.379Z,46.10
2019-04-20T21:23:28.370Z,46.20
2019-04-20T21:26:05.034Z,46.30
2019-04-20T21:28:36.197Z,46.30
2019-04-20T21:31:12.448Z,46.40
2019-04-20T21:33:38.229Z,46.30
2019-04-20T21:36:07.117Z,46.40
2019-04-20T21:38:40.755Z,46.50
2019-04-20T21:41:12.371Z,46.40
2019-04-20T21:43:42.312Z,46.50
2019-04-20T21:46:11.930Z,46.50
2019-04-20T21:48:56.027Z,46.50
2019-04-20T21:51:25.640Z,46.60
2019-04-20T21:53:42.370Z,46.60
2019-04-20T21:56:12.219Z,46.60
2019-04-20T21:58:48.308Z,46.70
2019-04-20T22:01:22.152Z,46.70
2019-04-20T22:03:44.752Z,46.70
2019-04-20T22:06:16.251Z,46.80
2019-04-20T22:08:51.821Z,46.90
2019-04-20T22:11:17.751Z,47.00
2019-04-20T22:13:49.339Z,47.00
2019-04-20T22:16:18.980Z,47.00
2019-04-20T22:18:54.386Z,47.10
2019-04-20T22:21:27.821Z,47.10
2019-04-20T22:24:03.236Z,47.20
2019-04-20T22:26:30.969Z,47.30
2019-04-20T22:28:52.164Z,47.20
2019-04-20T22:31:22.284Z,47.30
2019-04-20T22:33:52.374Z,47.30
2019-04-20T22:36:26.037Z,47.40
2019-04-20T22:39:13.556Z,47.40
2019-04-20T22:41:54.684Z,47.50
2019-04-20T22:44:24.224Z,47.60
2019-04-20T22:46:52.173Z,47.60
2019-04-20T22:49:35.942Z,47.70
2019-04-20T22:52:00.635Z,47.70
2019-04-20T22:54:39.848Z,47.80
2019-04-20T22:57:03.076Z,47.80
2019-04-20T22:59:37.379Z,47.80
2019-04-20T23:01:59.951Z,47.90
2019-04-20T23:04:26.761Z,47.90
2019-04-20T23:06:57.329Z,47.90
2019-04-20T23:09:26.893Z,47.90
2019-04-20T23:12:03.775Z,47.80
2019-04-20T23:14:28.800Z,47.90
2019-04-20T23:16:57.914Z,47.80
2019-04-20T23:19:34.594Z,47.80
2019-04-20T23:22:02.913Z,47.90
2019-04-20T23:24:29.196Z,47.80
2019-04-20T23:27:04.355Z,48.20
2019-04-20T23:29:33.760Z,48.00
2019-04-20T23:32:04.967Z,48.10
2019-04-20T23:34:32.810Z,48.20
2019-04-20T23:37:01.318Z,48.30
2019-04-20T23:39:35.469Z,48.30
2019-04-20T23:42:05.640Z,48.40
2019-04-20T23:44:40.045Z,48.30
2019-04-20T23:47:24.022Z,48.50
2019-04-20T23:50:12.395Z,48.40
2019-04-20T23:52:49.140Z,48.50
2019-04-20T23:55:04.040Z,48.50
2019-04-20T23:57:29.413Z,48.50
2019-04-20T23:59:58.662Z,48.40
